sensor_id;sensor_type;location;lat;lon;timestamp;pressure;altitude;pressure_sealevel;temperature;humidity
84316;BME280;74496;52.236;5.164;2024-01-25T00:01:46;102737.16;;;10.15;66.38
84316;BME280;74496;52.236;5.164;2024-01-25T00:04:15;102730.88;;;10.18;66.58
84316;BME280;74496;52.236;5.164;2024-01-25T00:06:41;102729.38;;;10.14;66.90
84316;BME280;74496;52.236;5.164;2024-01-25T00:09:08;102737.28;;;10.14;66.86
84316;BME280;74496;52.236;5.164;2024-01-25T00:11:35;102729.53;;;10.10;66.41
84316;BME280;74496;52.236;5.164;2024-01-25T00:14:01;102721.38;;;9.99;67.40
84316;BME280;74496;52.236;5.164;2024-01-25T00:16:28;102724.19;;;9.96;67.28
84316;BME280;74496;52.236;5.164;2024-01-25T00:18:55;102724.84;;;10.00;67.26
84316;BME280;74496;52.236;5.164;2024-01-25T00:21:23;102728.63;;;9.96;67.08
84316;BME280;74496;52.236;5.164;2024-01-25T00:23:50;102730.50;;;9.94;66.94
84316;BME280;74496;52.236;5.164;2024-01-25T00:26:17;102735.06;;;10.06;66.59
84316;BME280;74496;52.236;5.164;2024-01-25T00:28:43;102723.16;;;9.99;66.62
84316;BME280;74496;52.236;5.164;2024-01-25T00:31:10;102734.06;;;9.93;67.38
84316;BME280;74496;52.236;5.164;2024-01-25T00:33:37;102730.06;;;9.85;67.20
84316;BME280;74496;52.236;5.164;2024-01-25T00:36:05;102729.63;;;9.93;67.45
84316;BME280;74496;52.236;5.164;2024-01-25T00:38:33;102720.97;;;9.91;67.00
84316;BME280;74496;52.236;5.164;2024-01-25T00:41:04;102728.38;;;9.84;67.06
84316;BME280;74496;52.236;5.164;2024-01-25T00:43:40;102723.53;;;9.77;67.49
84316;BME280;74496;52.236;5.164;2024-01-25T00:46:07;102721.84;;;9.60;67.63
84316;BME280;74496;52.236;5.164;2024-01-25T00:48:35;102732.81;;;9.68;67.56
84316;BME280;74496;52.236;5.164;2024-01-25T00:51:03;102744.88;;;9.72;67.74
84316;BME280;74496;52.236;5.164;2024-01-25T00:53:35;102753.63;;;9.73;67.52
84316;BME280;74496;52.236;5.164;2024-01-25T00:56:03;102744.63;;;9.61;67.99
84316;BME280;74496;52.236;5.164;2024-01-25T00:58:30;102758.66;;;9.61;67.81
84316;BME280;74496;52.236;5.164;2024-01-25T01:00:57;102741.91;;;9.62;68.15
84316;BME280;74496;52.236;5.164;2024-01-25T01:03:24;102754.81;;;9.67;68.01
84316;BME280;74496;52.236;5.164;2024-01-25T01:05:52;102750.81;;;9.76;67.56
84316;BME280;74496;52.236;5.164;2024-01-25T01:08:19;102755.00;;;9.64;67.77
84316;BME280;74496;52.236;5.164;2024-01-25T01:10:47;102762.91;;;9.64;67.88
84316;BME280;74496;52.236;5.164;2024-01-25T01:13:14;102762.13;;;9.62;68.08
84316;BME280;74496;52.236;5.164;2024-01-25T01:15:41;102770.47;;;9.54;68.49
84316;BME280;74496;52.236;5.164;2024-01-25T01:18:07;102773.63;;;9.61;67.72
84316;BME280;74496;52.236;5.164;2024-01-25T01:20:34;102767.31;;;9.63;67.97
84316;BME280;74496;52.236;5.164;2024-01-25T01:23:01;102769.72;;;9.68;68.15
84316;BME280;74496;52.236;5.164;2024-01-25T01:25:28;102771.13;;;9.74;67.43
84316;BME280;74496;52.236;5.164;2024-01-25T01:27:56;102764.00;;;9.60;67.83
84316;BME280;74496;52.236;5.164;2024-01-25T01:30:22;102763.16;;;9.59;67.90
84316;BME280;74496;52.236;5.164;2024-01-25T01:32:49;102772.84;;;9.59;67.80
84316;BME280;74496;52.236;5.164;2024-01-25T01:35:16;102774.53;;;9.60;67.75
84316;BME280;74496;52.236;5.164;2024-01-25T01:37:42;102768.75;;;9.53;68.38
84316;BME280;74496;52.236;5.164;2024-01-25T01:40:10;102767.56;;;9.59;68.08
84316;BME280;74496;52.236;5.164;2024-01-25T01:42:37;102770.53;;;9.53;68.39
84316;BME280;74496;52.236;5.164;2024-01-25T01:45:07;102768.84;;;9.52;68.32
84316;BME280;74496;52.236;5.164;2024-01-25T01:47:36;102781.34;;;9.48;68.22
84316;BME280;74496;52.236;5.164;2024-01-25T01:50:03;102775.97;;;9.50;68.56
84316;BME280;74496;52.236;5.164;2024-01-25T01:52:30;102784.72;;;9.50;68.58
84316;BME280;74496;52.236;5.164;2024-01-25T01:54:57;102785.66;;;9.49;68.56
84316;BME280;74496;52.236;5.164;2024-01-25T01:57:25;102774.19;;;9.50;68.02
84316;BME280;74496;52.236;5.164;2024-01-25T01:59:53;102770.13;;;9.45;68.34
84316;BME280;74496;52.236;5.164;2024-01-25T02:02:21;102776.41;;;9.42;68.42
84316;BME280;74496;52.236;5.164;2024-01-25T02:04:49;102781.03;;;9.37;68.94
84316;BME280;74496;52.236;5.164;2024-01-25T02:07:16;102784.69;;;9.34;68.95
84316;BME280;74496;52.236;5.164;2024-01-25T02:09:42;102789.44;;;9.28;68.59
84316;BME280;74496;52.236;5.164;2024-01-25T02:12:09;102789.69;;;9.23;69.19
84316;BME280;74496;52.236;5.164;2024-01-25T02:14:36;102794.09;;;9.23;69.08
84316;BME280;74496;52.236;5.164;2024-01-25T02:17:03;102796.06;;;9.19;68.80
84316;BME280;74496;52.236;5.164;2024-01-25T02:19:31;102805.13;;;9.13;68.82
84316;BME280;74496;52.236;5.164;2024-01-25T02:21:58;102812.06;;;9.14;68.83
84316;BME280;74496;52.236;5.164;2024-01-25T02:24:26;102806.13;;;9.11;68.70
84316;BME280;74496;52.236;5.164;2024-01-25T02:26:53;102807.22;;;9.07;69.62
84316;BME280;74496;52.236;5.164;2024-01-25T02:29:20;102812.63;;;9.04;69.20
84316;BME280;74496;52.236;5.164;2024-01-25T02:31:47;102806.16;;;8.93;69.74
84316;BME280;74496;52.236;5.164;2024-01-25T02:34:13;102818.47;;;8.93;70.15
84316;BME280;74496;52.236;5.164;2024-01-25T02:36:40;102825.81;;;8.86;69.83
84316;BME280;74496;52.236;5.164;2024-01-25T02:39:07;102827.50;;;8.87;69.74
84316;BME280;74496;52.236;5.164;2024-01-25T02:41:35;102829.53;;;8.82;69.64
84316;BME280;74496;52.236;5.164;2024-01-25T02:44:02;102826.22;;;8.79;69.93
84316;BME280;74496;52.236;5.164;2024-01-25T02:46:29;102827.28;;;8.75;70.16
84316;BME280;74496;52.236;5.164;2024-01-25T02:48:56;102822.88;;;8.75;70.33
84316;BME280;74496;52.236;5.164;2024-01-25T02:51:22;102833.38;;;8.75;69.54
84316;BME280;74496;52.236;5.164;2024-01-25T02:53:49;102820.47;;;8.71;70.00
84316;BME280;74496;52.236;5.164;2024-01-25T02:56:16;102833.94;;;8.64;70.36
84316;BME280;74496;52.236;5.164;2024-01-25T02:58:44;102832.31;;;8.62;70.75
84316;BME280;74496;52.236;5.164;2024-01-25T03:01:11;102830.91;;;8.55;70.26
84316;BME280;74496;52.236;5.164;2024-01-25T03:03:37;102837.41;;;8.48;70.39
84316;BME280;74496;52.236;5.164;2024-01-25T03:06:08;102835.06;;;8.41;70.44
84316;BME280;74496;52.236;5.164;2024-01-25T03:08:37;102828.22;;;8.37;71.21
84316;BME280;74496;52.236;5.164;2024-01-25T03:11:03;102827.53;;;8.34;70.88
84316;BME280;74496;52.236;5.164;2024-01-25T03:13:30;102825.75;;;8.34;70.94
84316;BME280;74496;52.236;5.164;2024-01-25T03:16:01;102834.63;;;8.32;70.66
84316;BME280;74496;52.236;5.164;2024-01-25T03:18:27;102840.72;;;8.32;70.54
84316;BME280;74496;52.236;5.164;2024-01-25T03:20:54;102837.53;;;8.26;70.99
84316;BME280;74496;52.236;5.164;2024-01-25T03:23:21;102835.84;;;8.25;70.65
84316;BME280;74496;52.236;5.164;2024-01-25T03:25:47;102839.63;;;8.19;71.26
84316;BME280;74496;52.236;5.164;2024-01-25T03:28:14;102844.31;;;8.12;71.45
84316;BME280;74496;52.236;5.164;2024-01-25T03:30:44;102846.09;;;8.12;70.93
84316;BME280;74496;52.236;5.164;2024-01-25T03:33:12;102846.31;;;8.07;70.92
84316;BME280;74496;52.236;5.164;2024-01-25T03:35:39;102846.25;;;8.09;71.16
84316;BME280;74496;52.236;5.164;2024-01-25T03:38:05;102843.59;;;8.09;70.62
84316;BME280;74496;52.236;5.164;2024-01-25T03:40:32;102837.59;;;8.07;70.80
84316;BME280;74496;52.236;5.164;2024-01-25T03:42:59;102834.16;;;8.05;70.90
84316;BME280;74496;52.236;5.164;2024-01-25T03:45:25;102834.16;;;8.05;70.37
84316;BME280;74496;52.236;5.164;2024-01-25T03:47:53;102824.72;;;8.01;70.88
84316;BME280;74496;52.236;5.164;2024-01-25T03:50:21;102826.66;;;7.97;71.40
84316;BME280;74496;52.236;5.164;2024-01-25T03:52:47;102830.41;;;7.91;70.71
84316;BME280;74496;52.236;5.164;2024-01-25T03:55:14;102834.88;;;7.89;71.21
84316;BME280;74496;52.236;5.164;2024-01-25T03:57:41;102840.00;;;7.73;72.45
84316;BME280;74496;52.236;5.164;2024-01-25T04:00:09;102853.91;;;7.75;71.82
84316;BME280;74496;52.236;5.164;2024-01-25T04:02:36;102844.38;;;7.73;71.49
84316;BME280;74496;52.236;5.164;2024-01-25T04:05:03;102841.00;;;7.71;72.09
84316;BME280;74496;52.236;5.164;2024-01-25T04:07:32;102836.03;;;7.65;71.65
84316;BME280;74496;52.236;5.164;2024-01-25T04:09:58;102834.50;;;7.59;72.02
84316;BME280;74496;52.236;5.164;2024-01-25T04:12:25;102828.28;;;7.62;71.65
84316;BME280;74496;52.236;5.164;2024-01-25T04:14:52;102826.31;;;7.67;71.43
84316;BME280;74496;52.236;5.164;2024-01-25T04:17:19;102820.25;;;7.65;71.88
84316;BME280;74496;52.236;5.164;2024-01-25T04:19:45;102823.03;;;7.62;71.83
84316;BME280;74496;52.236;5.164;2024-01-25T04:22:12;102840.63;;;7.60;72.22
84316;BME280;74496;52.236;5.164;2024-01-25T04:24:40;102836.44;;;7.56;72.14
84316;BME280;74496;52.236;5.164;2024-01-25T04:27:08;102832.81;;;7.58;72.14
84316;BME280;74496;52.236;5.164;2024-01-25T04:29:38;102825.94;;;7.56;71.42
84316;BME280;74496;52.236;5.164;2024-01-25T04:32:05;102831.41;;;7.51;71.41
84316;BME280;74496;52.236;5.164;2024-01-25T04:34:32;102837.72;;;7.47;71.89
84316;BME280;74496;52.236;5.164;2024-01-25T04:36:59;102846.03;;;7.36;73.42
84316;BME280;74496;52.236;5.164;2024-01-25T04:39:25;102840.75;;;7.38;72.41
84316;BME280;74496;52.236;5.164;2024-01-25T04:41:53;102835.53;;;7.36;72.05
84316;BME280;74496;52.236;5.164;2024-01-25T04:44:20;102843.50;;;7.35;72.12
84316;BME280;74496;52.236;5.164;2024-01-25T04:46:47;102833.06;;;7.33;72.09
84316;BME280;74496;52.236;5.164;2024-01-25T04:49:14;102846.19;;;7.33;72.11
84316;BME280;74496;52.236;5.164;2024-01-25T04:51:40;102847.38;;;7.26;72.77
84316;BME280;74496;52.236;5.164;2024-01-25T04:54:07;102850.13;;;7.23;72.47
84316;BME280;74496;52.236;5.164;2024-01-25T04:56:38;102854.47;;;7.24;72.91
84316;BME280;74496;52.236;5.164;2024-01-25T04:59:06;102844.97;;;7.21;72.42
84316;BME280;74496;52.236;5.164;2024-01-25T05:01:33;102840.91;;;7.14;72.53
84316;BME280;74496;52.236;5.164;2024-01-25T05:04:00;102839.84;;;7.18;72.34
84316;BME280;74496;52.236;5.164;2024-01-25T05:06:27;102839.91;;;7.17;72.58
84316;BME280;74496;52.236;5.164;2024-01-25T05:08:54;102843.56;;;7.13;73.25
84316;BME280;74496;52.236;5.164;2024-01-25T05:11:21;102850.53;;;7.14;73.04
84316;BME280;74496;52.236;5.164;2024-01-25T05:13:47;102846.53;;;7.05;72.88
84316;BME280;74496;52.236;5.164;2024-01-25T05:16:16;102846.41;;;7.08;72.63
84316;BME280;74496;52.236;5.164;2024-01-25T05:18:43;102840.38;;;7.06;73.26
84316;BME280;74496;52.236;5.164;2024-01-25T05:21:10;102843.78;;;7.08;73.43
84316;BME280;74496;52.236;5.164;2024-01-25T05:23:36;102852.03;;;6.99;74.45
84316;BME280;74496;52.236;5.164;2024-01-25T05:26:03;102847.53;;;7.02;73.75
84316;BME280;74496;52.236;5.164;2024-01-25T05:28:30;102854.41;;;7.05;72.76
84316;BME280;74496;52.236;5.164;2024-01-25T05:30:59;102856.81;;;7.10;73.32
84316;BME280;74496;52.236;5.164;2024-01-25T05:33:27;102853.34;;;7.09;72.99
84316;BME280;74496;52.236;5.164;2024-01-25T05:35:54;102856.06;;;7.08;72.71
84316;BME280;74496;52.236;5.164;2024-01-25T05:38:20;102871.06;;;7.04;73.53
84316;BME280;74496;52.236;5.164;2024-01-25T05:40:47;102871.63;;;6.90;74.83
84316;BME280;74496;52.236;5.164;2024-01-25T05:43:14;102878.53;;;6.93;74.07
84316;BME280;74496;52.236;5.164;2024-01-25T05:45:41;102875.31;;;6.86;73.83
84316;BME280;74496;52.236;5.164;2024-01-25T05:48:07;102871.72;;;6.89;73.37
84316;BME280;74496;52.236;5.164;2024-01-25T05:50:35;102869.16;;;6.87;73.72
84316;BME280;74496;52.236;5.164;2024-01-25T05:53:02;102870.28;;;6.60;75.23
84316;BME280;74496;52.236;5.164;2024-01-25T05:55:29;102875.66;;;6.78;73.94
84316;BME280;74496;52.236;5.164;2024-01-25T05:57:57;102876.06;;;6.68;74.98
84316;BME280;74496;52.236;5.164;2024-01-25T06:00:24;102882.06;;;6.71;74.44
84316;BME280;74496;52.236;5.164;2024-01-25T06:02:50;102880.03;;;6.78;74.14
84316;BME280;74496;52.236;5.164;2024-01-25T06:05:17;102871.97;;;6.82;73.57
84316;BME280;74496;52.236;5.164;2024-01-25T06:07:46;102865.66;;;6.87;73.34
84316;BME280;74496;52.236;5.164;2024-01-25T06:10:14;102863.16;;;6.84;73.83
84316;BME280;74496;52.236;5.164;2024-01-25T06:12:41;102866.59;;;6.86;73.72
84316;BME280;74496;52.236;5.164;2024-01-25T06:15:08;102879.84;;;6.61;75.80
84316;BME280;74496;52.236;5.164;2024-01-25T06:17:35;102887.59;;;6.64;74.86
84316;BME280;74496;52.236;5.164;2024-01-25T06:20:02;102878.84;;;6.65;74.45
84316;BME280;74496;52.236;5.164;2024-01-25T06:22:32;102874.38;;;6.67;74.25
84316;BME280;74496;52.236;5.164;2024-01-25T06:25:00;102876.06;;;6.68;74.28
84316;BME280;74496;52.236;5.164;2024-01-25T06:27:27;102879.47;;;6.70;74.13
84316;BME280;74496;52.236;5.164;2024-01-25T06:29:53;102884.72;;;6.70;74.30
84316;BME280;74496;52.236;5.164;2024-01-25T06:32:20;102888.16;;;6.72;74.20
84316;BME280;74496;52.236;5.164;2024-01-25T06:34:47;102893.41;;;6.72;74.60
84316;BME280;74496;52.236;5.164;2024-01-25T06:37:13;102882.97;;;6.70;74.65
84316;BME280;74496;52.236;5.164;2024-01-25T06:39:44;102889.66;;;6.77;74.17
84316;BME280;74496;52.236;5.164;2024-01-25T06:42:12;102882.59;;;6.79;74.21
84316;BME280;74496;52.236;5.164;2024-01-25T06:44:38;102884.25;;;6.82;74.00
84316;BME280;74496;52.236;5.164;2024-01-25T06:47:05;102879.88;;;6.81;73.84
84316;BME280;74496;52.236;5.164;2024-01-25T06:49:32;102887.97;;;6.76;74.51
84316;BME280;74496;52.236;5.164;2024-01-25T06:51:59;102889.00;;;6.72;74.32
84316;BME280;74496;52.236;5.164;2024-01-25T06:54:26;102892.34;;;6.76;74.10
84316;BME280;74496;52.236;5.164;2024-01-25T06:56:53;102885.28;;;6.78;74.27
84316;BME280;74496;52.236;5.164;2024-01-25T06:59:23;102879.16;;;6.77;74.07
84316;BME280;74496;52.236;5.164;2024-01-25T07:01:50;102873.03;;;6.78;74.29
84316;BME280;74496;52.236;5.164;2024-01-25T07:04:18;102875.69;;;6.77;74.58
84316;BME280;74496;52.236;5.164;2024-01-25T07:06:45;102879.47;;;6.70;74.63
84316;BME280;74496;52.236;5.164;2024-01-25T07:09:12;102891.50;;;6.75;74.06
84316;BME280;74496;52.236;5.164;2024-01-25T07:11:39;102898.31;;;6.79;73.87
84316;BME280;74496;52.236;5.164;2024-01-25T07:14:06;102892.09;;;6.82;74.22
84316;BME280;74496;52.236;5.164;2024-01-25T07:16:34;102893.00;;;6.81;73.94
84316;BME280;74496;52.236;5.164;2024-01-25T07:19:00;102889.28;;;6.87;73.86
84316;BME280;74496;52.236;5.164;2024-01-25T07:21:27;102889.03;;;6.93;73.78
84316;BME280;74496;52.236;5.164;2024-01-25T07:23:57;102892.91;;;6.62;76.02
84316;BME280;74496;52.236;5.164;2024-01-25T07:26:25;102887.97;;;6.76;74.84
84316;BME280;74496;52.236;5.164;2024-01-25T07:28:51;102891.19;;;6.61;75.83
84316;BME280;74496;52.236;5.164;2024-01-25T07:31:22;102894.19;;;6.74;74.42
84316;BME280;74496;52.236;5.164;2024-01-25T07:33:50;102889.00;;;6.50;76.54
84316;BME280;74496;52.236;5.164;2024-01-25T07:36:17;102896.34;;;6.42;77.59
84316;BME280;74496;52.236;5.164;2024-01-25T07:38:50;102892.09;;;6.38;77.67
84316;BME280;74496;52.236;5.164;2024-01-25T07:41:16;102890.72;;;6.29;77.90
84316;BME280;74496;52.236;5.164;2024-01-25T07:43:43;102883.69;;;6.30;79.08
84316;BME280;74496;52.236;5.164;2024-01-25T07:46:10;102878.34;;;6.33;78.44
84316;BME280;74496;52.236;5.164;2024-01-25T07:48:40;102876.69;;;6.30;79.16
84316;BME280;74496;52.236;5.164;2024-01-25T07:51:12;102882.00;;;6.29;78.92
84316;BME280;74496;52.236;5.164;2024-01-25T07:53:39;102885.97;;;6.39;79.03
84316;BME280;74496;52.236;5.164;2024-01-25T07:56:06;102890.25;;;6.42;78.72
84316;BME280;74496;52.236;5.164;2024-01-25T07:58:34;102885.00;;;6.42;79.13
84316;BME280;74496;52.236;5.164;2024-01-25T08:01:02;102883.28;;;6.41;79.84
84316;BME280;74496;52.236;5.164;2024-01-25T08:03:30;102885.03;;;6.40;79.47
84316;BME280;74496;52.236;5.164;2024-01-25T08:05:57;102886.69;;;6.43;78.67
84316;BME280;74496;52.236;5.164;2024-01-25T08:08:25;102887.47;;;6.45;79.29
84316;BME280;74496;52.236;5.164;2024-01-25T08:10:51;102884.69;;;6.49;78.99
84316;BME280;74496;52.236;5.164;2024-01-25T08:13:18;102882.00;;;6.51;78.92
84316;BME280;74496;52.236;5.164;2024-01-25T08:15:45;102865.41;;;6.50;78.73
84316;BME280;74496;52.236;5.164;2024-01-25T08:18:11;102876.88;;;6.48;78.53
84316;BME280;74496;52.236;5.164;2024-01-25T08:20:39;102884.00;;;6.44;79.15
84316;BME280;74496;52.236;5.164;2024-01-25T08:23:06;102890.25;;;6.42;79.36
84316;BME280;74496;52.236;5.164;2024-01-25T08:25:35;102898.47;;;6.32;79.53
84316;BME280;74496;52.236;5.164;2024-01-25T08:28:02;102892.19;;;6.37;78.97
84316;BME280;74496;52.236;5.164;2024-01-25T08:30:29;102886.84;;;6.38;79.30
84316;BME280;74496;52.236;5.164;2024-01-25T08:32:56;102885.84;;;6.42;78.93
84316;BME280;74496;52.236;5.164;2024-01-25T08:35:22;102880.66;;;6.41;79.56
84316;BME280;74496;52.236;5.164;2024-01-25T08:37:49;102903.19;;;6.45;79.35
84316;BME280;74496;52.236;5.164;2024-01-25T08:40:16;102899.56;;;6.49;79.23
84316;BME280;74496;52.236;5.164;2024-01-25T08:42:45;102904.75;;;6.50;79.63
84316;BME280;74496;52.236;5.164;2024-01-25T08:45:11;102903.81;;;6.51;79.73
84316;BME280;74496;52.236;5.164;2024-01-25T08:47:39;102907.19;;;6.55;79.34
84316;BME280;74496;52.236;5.164;2024-01-25T08:50:06;102914.13;;;6.56;80.16
84316;BME280;74496;52.236;5.164;2024-01-25T08:52:36;102903.53;;;6.59;81.23
84316;BME280;74496;52.236;5.164;2024-01-25T08:55:03;102905.94;;;6.64;81.10
84316;BME280;74496;52.236;5.164;2024-01-25T08:57:30;102897.84;;;6.70;80.22
84316;BME280;74496;52.236;5.164;2024-01-25T08:59:58;102885.41;;;6.75;80.61
84316;BME280;74496;52.236;5.164;2024-01-25T09:02:26;102898.06;;;6.86;80.30
84316;BME280;74496;52.236;5.164;2024-01-25T09:04:54;102893.34;;;6.94;79.47
84316;BME280;74496;52.236;5.164;2024-01-25T09:07:21;102903.69;;;6.98;79.46
84316;BME280;74496;52.236;5.164;2024-01-25T09:09:48;102900.00;;;7.02;79.52
84316;BME280;74496;52.236;5.164;2024-01-25T09:12:15;102908.34;;;7.12;78.62
84316;BME280;74496;52.236;5.164;2024-01-25T09:14:42;102914.69;;;7.07;78.85
84316;BME280;74496;52.236;5.164;2024-01-25T09:17:10;102914.50;;;7.11;78.76
84316;BME280;74496;52.236;5.164;2024-01-25T09:19:36;102915.13;;;7.18;77.94
84316;BME280;74496;52.236;5.164;2024-01-25T09:22:03;102902.13;;;7.15;77.96
84316;BME280;74496;52.236;5.164;2024-01-25T09:24:30;102906.38;;;7.17;79.43
84316;BME280;74496;52.236;5.164;2024-01-25T09:27:01;102906.09;;;7.23;78.50
84316;BME280;74496;52.236;5.164;2024-01-25T09:29:28;102898.94;;;7.27;77.66
84316;BME280;74496;52.236;5.164;2024-01-25T09:31:54;102888.53;;;7.25;78.58
84316;BME280;74496;52.236;5.164;2024-01-25T09:34:22;102887.56;;;7.28;78.78
84316;BME280;74496;52.236;5.164;2024-01-25T09:36:49;102888.84;;;7.38;77.61
84316;BME280;74496;52.236;5.164;2024-01-25T09:39:16;102894.88;;;7.40;78.55
84316;BME280;74496;52.236;5.164;2024-01-25T09:41:43;102894.34;;;7.52;77.47
84316;BME280;74496;52.236;5.164;2024-01-25T09:44:11;102902.88;;;7.58;77.49
84316;BME280;74496;52.236;5.164;2024-01-25T09:46:38;102899.78;;;7.68;76.81
84316;BME280;74496;52.236;5.164;2024-01-25T09:49:06;102897.94;;;7.70;76.92
84316;BME280;74496;52.236;5.164;2024-01-25T09:51:37;102889.78;;;7.77;76.55
84316;BME280;74496;52.236;5.164;2024-01-25T09:54:05;102886.28;;;7.76;77.59
84316;BME280;74496;52.236;5.164;2024-01-25T09:56:33;102881.81;;;7.78;77.19
84316;BME280;74496;52.236;5.164;2024-01-25T09:59:00;102885.53;;;7.74;77.42
84316;BME280;74496;52.236;5.164;2024-01-25T10:01:27;102878.06;;;7.84;77.57
84316;BME280;74496;52.236;5.164;2024-01-25T10:03:54;102881.41;;;7.87;77.38
84316;BME280;74496;52.236;5.164;2024-01-25T10:06:21;102878.94;;;7.84;78.00
84316;BME280;74496;52.236;5.164;2024-01-25T10:08:51;102890.72;;;7.94;77.61
84316;BME280;74496;52.236;5.164;2024-01-25T10:11:18;102885.09;;;8.02;77.29
84316;BME280;74496;52.236;5.164;2024-01-25T10:13:46;102892.50;;;8.13;76.58
84316;BME280;74496;52.236;5.164;2024-01-25T10:16:13;102887.16;;;8.14;77.06
84316;BME280;74496;52.236;5.164;2024-01-25T10:18:41;102886.03;;;8.20;77.27
84316;BME280;74496;52.236;5.164;2024-01-25T10:21:09;102884.13;;;8.23;76.35
84316;BME280;74496;52.236;5.164;2024-01-25T10:23:36;102877.72;;;8.29;76.61
84316;BME280;74496;52.236;5.164;2024-01-25T10:26:05;102874.66;;;8.38;76.52
84316;BME280;74496;52.236;5.164;2024-01-25T10:28:34;102873.38;;;8.47;76.16
84316;BME280;74496;52.236;5.164;2024-01-25T10:31:01;102875.22;;;8.45;76.27
84316;BME280;74496;52.236;5.164;2024-01-25T10:33:30;102884.69;;;8.49;75.40
84316;BME280;74496;52.236;5.164;2024-01-25T10:35:57;102878.34;;;8.53;76.27
84316;BME280;74496;52.236;5.164;2024-01-25T10:38:29;102882.00;;;8.68;75.54
84316;BME280;74496;52.236;5.164;2024-01-25T10:40:58;102879.69;;;8.79;74.63
84316;BME280;74496;52.236;5.164;2024-01-25T10:43:27;102886.91;;;8.76;75.25
84316;BME280;74496;52.236;5.164;2024-01-25T10:45:56;102868.31;;;8.79;75.73
84316;BME280;74496;52.236;5.164;2024-01-25T10:48:24;102877.81;;;8.81;74.74
84316;BME280;74496;52.236;5.164;2024-01-25T10:50:52;102884.81;;;8.82;74.64
84316;BME280;74496;52.236;5.164;2024-01-25T10:53:20;102886.59;;;8.82;75.58
84316;BME280;74496;52.236;5.164;2024-01-25T10:55:48;102881.38;;;8.80;75.57
84316;BME280;74496;52.236;5.164;2024-01-25T10:58:15;102867.28;;;8.81;75.68
84316;BME280;74496;52.236;5.164;2024-01-25T11:00:51;102858.78;;;8.93;75.22
84316;BME280;74496;52.236;5.164;2024-01-25T11:03:18;102859.56;;;8.96;75.24
84316;BME280;74496;52.236;5.164;2024-01-25T11:05:46;102850.09;;;8.91;74.43
84316;BME280;74496;52.236;5.164;2024-01-25T11:08:18;102836.59;;;8.99;74.80
84316;BME280;74496;52.236;5.164;2024-01-25T11:10:49;102827.81;;;9.16;74.57
84316;BME280;74496;52.236;5.164;2024-01-25T11:13:23;102826.50;;;9.25;74.24
84316;BME280;74496;52.236;5.164;2024-01-25T11:15:52;102822.44;;;9.18;74.43
84316;BME280;74496;52.236;5.164;2024-01-25T11:18:19;102832.66;;;9.24;74.75
84316;BME280;74496;52.236;5.164;2024-01-25T11:20:47;102844.13;;;9.23;73.68
84316;BME280;74496;52.236;5.164;2024-01-25T11:23:15;102839.94;;;9.36;74.24
84316;BME280;74496;52.236;5.164;2024-01-25T11:25:45;102832.03;;;9.36;74.08
84316;BME280;74496;52.236;5.164;2024-01-25T11:28:14;102798.22;;;9.44;73.46
84316;BME280;74496;52.236;5.164;2024-01-25T11:30:42;102799.81;;;9.31;73.46
84316;BME280;74496;52.236;5.164;2024-01-25T11:33:11;102805.00;;;9.32;73.64
84316;BME280;74496;52.236;5.164;2024-01-25T11:35:39;102800.97;;;9.58;73.17
84316;BME280;74496;52.236;5.164;2024-01-25T11:38:09;102792.41;;;9.55;73.11
84316;BME280;74496;52.236;5.164;2024-01-25T11:40:35;102797.81;;;9.52;72.84
84316;BME280;74496;52.236;5.164;2024-01-25T11:43:05;102790.66;;;9.54;73.23
84316;BME280;74496;52.236;5.164;2024-01-25T11:45:37;102782.09;;;9.50;73.05
84316;BME280;74496;52.236;5.164;2024-01-25T11:48:07;102767.75;;;9.72;72.49
84316;BME280;74496;52.236;5.164;2024-01-25T11:50:35;102765.63;;;9.62;72.85
84316;BME280;74496;52.236;5.164;2024-01-25T11:53:02;102759.00;;;9.71;72.77
84316;BME280;74496;52.236;5.164;2024-01-25T11:55:29;102752.00;;;9.70;72.17
84316;BME280;74496;52.236;5.164;2024-01-25T11:57:55;102756.88;;;9.78;72.41
84316;BME280;74496;52.236;5.164;2024-01-25T12:00:22;102756.88;;;9.78;73.06
84316;BME280;74496;52.236;5.164;2024-01-25T12:02:49;102746.41;;;9.76;72.44
84316;BME280;74496;52.236;5.164;2024-01-25T12:05:16;102740.91;;;9.81;72.72
84316;BME280;74496;52.236;5.164;2024-01-25T12:07:44;102737.47;;;9.79;72.96
84316;BME280;74496;52.236;5.164;2024-01-25T12:10:16;102731.75;;;9.86;73.18
84316;BME280;74496;52.236;5.164;2024-01-25T12:12:43;102746.56;;;9.89;72.40
84316;BME280;74496;52.236;5.164;2024-01-25T12:15:10;102746.31;;;9.94;72.35
84316;BME280;74496;52.236;5.164;2024-01-25T12:17:36;102745.38;;;9.95;72.31
84316;BME280;74496;52.236;5.164;2024-01-25T12:20:05;102739.75;;;10.01;72.23
84316;BME280;74496;52.236;5.164;2024-01-25T12:22:36;102738.69;;;10.19;71.88
84316;BME280;74496;52.236;5.164;2024-01-25T12:25:08;102730.03;;;10.17;70.98
84316;BME280;74496;52.236;5.164;2024-01-25T12:27:36;102723.44;;;10.40;69.98
84316;BME280;74496;52.236;5.164;2024-01-25T12:30:04;102720.44;;;10.46;70.44
84316;BME280;74496;52.236;5.164;2024-01-25T12:32:31;102709.97;;;10.45;69.87
84316;BME280;74496;52.236;5.164;2024-01-25T12:34:58;102715.84;;;10.50;69.21
84316;BME280;74496;52.236;5.164;2024-01-25T12:37:26;102717.28;;;10.40;69.75
84316;BME280;74496;52.236;5.164;2024-01-25T12:39:54;102714.97;;;10.49;69.57
84316;BME280;74496;52.236;5.164;2024-01-25T12:42:22;102708.78;;;10.50;69.33
84316;BME280;74496;52.236;5.164;2024-01-25T12:44:52;102708.41;;;10.56;69.30
84316;BME280;74496;52.236;5.164;2024-01-25T12:47:19;102691.31;;;10.48;68.83
84316;BME280;74496;52.236;5.164;2024-01-25T12:49:45;102696.97;;;10.56;68.47
84316;BME280;74496;52.236;5.164;2024-01-25T12:52:13;102695.41;;;10.53;68.76
84316;BME280;74496;52.236;5.164;2024-01-25T12:54:40;102689.06;;;10.56;68.47
84316;BME280;74496;52.236;5.164;2024-01-25T12:57:07;102686.91;;;10.63;68.14
84316;BME280;74496;52.236;5.164;2024-01-25T12:59:36;102685.88;;;10.51;68.29
84316;BME280;74496;52.236;5.164;2024-01-25T13:02:03;102686.91;;;10.63;68.20